createdAt,value
2019-01-04T00:01:40.204Z,92.90
2019-01-04T00:04:13.796Z,92.90
2019-01-04T00:06:42.555Z,93.00
2019-01-04T00:09:11.189Z,92.70
2019-01-04T00:11:39.927Z,93.30
2019-01-04T00:14:08.556Z,93.50
2019-01-04T00:16:37.275Z,93.60
2019-01-04T00:19:06.016Z,93.60
2019-01-04T00:21:35.063Z,93.60
2019-01-04T00:24:03.657Z,93.70
2019-01-04T00:26:32.546Z,93.70
2019-01-04T00:29:01.207Z,93.60
2019-01-04T00:31:29.822Z,93.90
2019-01-04T00:33:58.496Z,93.90
2019-01-04T00:36:27.136Z,93.90
2019-01-04T00:38:55.701Z,93.80
2019-01-04T00:41:26.013Z,93.90
2019-01-04T00:43:54.706Z,93.90
2019-01-04T00:46:23.304Z,94.00
2019-01-04T00:48:51.951Z,94.10
2019-01-04T00:51:20.713Z,94.30
2019-01-04T00:53:49.349Z,94.10
2019-01-04T00:57:10.657Z,94.30
2019-01-04T01:00:16.150Z,94.40
2019-01-04T01:03:14.709Z,94.50
2019-01-04T01:06:11.732Z,94.50
2019-01-04T01:09:11.293Z,94.60
2019-01-04T01:12:23.646Z,94.60
2019-01-04T01:16:04.339Z,94.60
2019-01-04T01:19:14.896Z,94.60
2019-01-04T01:22:20.158Z,94.70
2019-01-04T01:25:28.236Z,94.70
2019-01-04T01:28:40.301Z,94.70
2019-01-04T01:31:45.228Z,94.60
2019-01-04T01:34:54.447Z,94.70
2019-01-04T01:37:59.345Z,94.70
2019-01-04T01:41:16.429Z,94.80
2019-01-04T01:44:27.126Z,94.90
2019-01-04T01:47:22.468Z,94.90
2019-01-04T01:50:43.752Z,94.90
2019-01-04T01:53:12.428Z,95.00
2019-01-04T01:55:41.244Z,95.20
2019-01-04T01:58:10.029Z,95.20
2019-01-04T02:00:38.642Z,95.10
2019-01-04T02:03:07.262Z,94.70
2019-01-04T02:05:36.062Z,94.20
2019-01-04T02:08:04.770Z,94.00
2019-01-04T02:10:33.405Z,93.70
2019-01-04T02:13:01.964Z,93.90
2019-01-04T02:15:30.642Z,93.70
2019-01-04T02:18:00.313Z,93.70
2019-01-04T02:20:28.840Z,93.80
2019-01-04T02:22:57.539Z,93.90
2019-01-04T02:25:26.152Z,93.90
2019-01-04T02:27:54.788Z,94.00
2019-01-04T02:30:23.441Z,94.00
2019-01-04T02:32:52.076Z,94.20
2019-01-04T02:35:20.745Z,94.30
2019-01-04T02:37:49.446Z,94.30
2019-01-04T02:40:18.124Z,94.50
2019-01-04T02:42:46.735Z,94.60
2019-01-04T02:45:15.353Z,94.80
2019-01-04T02:47:43.961Z,95.00
2019-01-04T02:50:12.653Z,95.10
2019-01-04T02:52:42.338Z,95.10
2019-01-04T02:55:11.058Z,95.10
2019-01-04T02:57:39.803Z,95.20
2019-01-04T03:00:08.766Z,95.10
2019-01-04T03:02:37.364Z,95.10
2019-01-04T03:05:06.082Z,95.00
2019-01-04T03:07:35.015Z,94.90
2019-01-04T03:10:03.794Z,95.00
2019-01-04T03:12:32.416Z,95.10
2019-01-04T03:15:01.255Z,95.10
2019-01-04T03:17:29.884Z,95.00
2019-01-04T03:19:58.573Z,95.00
2019-01-04T03:22:27.228Z,95.00
2019-01-04T03:24:55.905Z,94.90
2019-01-04T03:27:24.516Z,95.00
2019-01-04T03:29:53.099Z,94.90
2019-01-04T03:32:21.687Z,94.80
2019-01-04T03:34:50.405Z,95.00
2019-01-04T03:37:19.090Z,95.30
2019-01-04T03:39:47.693Z,95.10
2019-01-04T03:42:16.379Z,95.20
2019-01-04T03:44:45.067Z,95.00
2019-01-04T03:47:13.802Z,94.90
2019-01-04T03:49:42.558Z,94.90
2019-01-04T03:52:11.187Z,95.00
2019-01-04T03:54:39.919Z,94.80
2019-01-04T03:57:08.611Z,94.80
2019-01-04T03:59:37.205Z,94.80
2019-01-04T04:02:06.781Z,94.50
2019-01-04T04:04:35.584Z,94.40
2019-01-04T04:07:04.218Z,94.40
2019-01-04T04:09:32.958Z,94.30
2019-01-04T04:12:01.833Z,94.10
2019-01-04T04:14:32.236Z,94.10
2019-01-04T04:17:00.980Z,94.20
2019-01-04T04:19:29.728Z,94.20
2019-01-04T04:21:58.352Z,94.30
2019-01-04T04:24:26.962Z,94.40
2019-01-04T04:26:55.733Z,94.40
2019-01-04T04:29:24.604Z,94.30
2019-01-04T04:31:53.208Z,94.30
2019-01-04T04:34:21.973Z,94.50
2019-01-04T04:36:50.631Z,94.30
2019-01-04T04:39:19.412Z,94.30
2019-01-04T04:41:48.018Z,94.30
2019-01-04T04:44:16.692Z,94.20
2019-01-04T04:46:45.432Z,94.30
2019-01-04T04:49:14.117Z,94.20
2019-01-04T04:51:42.873Z,94.20
2019-01-04T04:54:11.574Z,94.20
2019-01-04T04:56:40.368Z,94.30
2019-01-04T04:59:09.022Z,94.30
2019-01-04T05:01:37.957Z,94.30
2019-01-04T05:04:07.264Z,94.30
2019-01-04T05:06:35.907Z,94.40
2019-01-04T05:09:06.072Z,94.30
2019-01-04T05:11:34.749Z,94.30
2019-01-04T05:14:03.480Z,94.10
2019-01-04T05:16:32.242Z,94.00
2019-01-04T05:19:00.951Z,94.20
2019-01-04T05:21:29.651Z,94.20
2019-01-04T05:23:58.304Z,94.30
2019-01-04T05:26:26.974Z,94.10
2019-01-04T05:28:55.656Z,94.00
2019-01-04T05:31:25.137Z,93.90
2019-01-04T05:33:53.721Z,93.80
2019-01-04T05:36:22.321Z,93.70
2019-01-04T05:38:50.902Z,93.70
2019-01-04T05:41:19.475Z,94.00
2019-01-04T05:43:48.041Z,93.40
2019-01-04T05:46:16.596Z,93.50
2019-01-04T05:48:45.173Z,93.40
2019-01-04T05:51:13.929Z,93.30
2019-01-04T05:53:42.512Z,93.30
2019-01-04T05:56:11.103Z,92.90
2019-01-04T05:58:39.656Z,92.80
2019-01-04T06:01:08.220Z,92.70
2019-01-04T06:03:36.798Z,92.80
2019-01-04T06:06:05.370Z,92.70
2019-01-04T06:08:33.944Z,92.80
2019-01-04T06:11:02.535Z,92.80
2019-01-04T06:13:31.114Z,92.80
2019-01-04T06:15:59.704Z,92.70
2019-01-04T06:18:31.529Z,93.00
2019-01-04T06:21:00.096Z,92.90
2019-01-04T06:23:28.680Z,92.90
2019-01-04T06:25:57.250Z,92.80
2019-01-04T06:28:25.843Z,92.80
2019-01-04T06:30:54.432Z,92.80
2019-01-04T06:33:23.043Z,92.90
2019-01-04T06:35:51.617Z,92.90
2019-01-04T06:38:20.195Z,92.90
2019-01-04T06:40:48.770Z,92.90
2019-01-04T06:43:17.364Z,92.90
2019-01-04T06:45:45.950Z,93.00
2019-01-04T06:48:14.646Z,92.80
2019-01-04T06:50:43.239Z,92.80
2019-01-04T06:53:11.832Z,92.70
2019-01-04T06:55:58.480Z,92.40
2019-01-04T06:58:27.065Z,92.40
2019-01-04T07:00:55.644Z,92.40
2019-01-04T07:03:24.253Z,92.40
2019-01-04T07:05:52.969Z,92.30
2019-01-04T07:08:21.541Z,92.00
2019-01-04T07:10:51.024Z,92.30
2019-01-04T07:13:19.589Z,92.20
2019-01-04T07:15:48.179Z,92.40
2019-01-04T07:18:16.745Z,92.10
2019-01-04T07:20:45.359Z,92.30
2019-01-04T07:23:13.937Z,92.30
2019-01-04T07:25:42.500Z,92.40
2019-01-04T07:28:11.064Z,92.40
2019-01-04T07:30:39.641Z,92.30
2019-01-04T07:33:08.274Z,92.10
2019-01-04T07:35:36.873Z,92.50
2019-01-04T07:38:05.449Z,92.00
2019-01-04T07:40:34.028Z,92.10
2019-01-04T07:43:02.588Z,92.10
2019-01-04T07:45:31.174Z,92.10
2019-01-04T07:47:59.724Z,92.20
2019-01-04T07:50:28.287Z,92.00
2019-01-04T07:52:56.871Z,91.80
2019-01-04T07:55:27.066Z,91.80
2019-01-04T07:57:55.643Z,91.60
2019-01-04T08:00:24.232Z,91.70
2019-01-04T08:02:59.659Z,91.60
2019-01-04T08:05:29.131Z,91.70
2019-01-04T08:07:57.731Z,91.40
2019-01-04T08:10:26.296Z,91.50
2019-01-04T08:12:54.864Z,91.50
2019-01-04T08:15:23.457Z,91.40
2019-01-04T08:17:52.032Z,91.20
2019-01-04T08:20:20.600Z,90.90
2019-01-04T08:22:49.997Z,90.70
2019-01-04T08:25:18.557Z,90.90
2019-01-04T08:27:47.145Z,90.80
2019-01-04T08:30:17.539Z,90.80
2019-01-04T08:32:46.117Z,90.70
2019-01-04T08:35:20.140Z,90.70
2019-01-04T08:37:48.700Z,90.90
2019-01-04T08:40:17.272Z,90.70
2019-01-04T08:42:45.840Z,90.70
2019-01-04T08:45:15.318Z,90.40
2019-01-04T08:47:43.895Z,90.60
2019-01-04T08:50:13.334Z,90.10
2019-01-04T08:52:42.052Z,90.20
2019-01-04T08:55:13.454Z,90.20
2019-01-04T08:57:42.059Z,90.00
2019-01-04T09:00:12.524Z,90.20
2019-01-04T09:02:41.094Z,90.40
2019-01-04T09:05:09.674Z,90.50
2019-01-04T09:07:38.236Z,90.20
2019-01-04T09:10:07.996Z,90.30
2019-01-04T09:12:36.574Z,89.70
2019-01-04T09:15:07.325Z,90.10
2019-01-04T09:17:37.096Z,90.10
2019-01-04T09:20:07.586Z,89.20
2019-01-04T09:22:36.220Z,88.00
2019-01-04T09:25:05.452Z,86.40
2019-01-04T09:27:34.014Z,86.60
2019-01-04T09:30:02.597Z,84.70
2019-01-04T09:32:31.173Z,83.10
2019-01-04T09:34:59.727Z,84.30
2019-01-04T09:37:28.312Z,81.90
2019-01-04T09:39:56.886Z,80.50
2019-01-04T09:42:26.519Z,79.00
2019-01-04T09:44:55.096Z,76.00
2019-01-04T09:47:30.840Z,77.80
2019-01-04T09:49:59.692Z,78.30
2019-01-04T09:52:28.273Z,75.80
2019-01-04T09:54:56.844Z,74.20
2019-01-04T09:57:25.588Z,76.20
2019-01-04T09:59:54.170Z,77.60
2019-01-04T10:02:22.740Z,77.20
2019-01-04T10:04:51.367Z,79.30
2019-01-04T10:07:19.935Z,78.40
2019-01-04T10:09:48.521Z,81.10
2019-01-04T10:12:17.110Z,80.70
2019-01-04T10:14:45.700Z,81.30
2019-01-04T10:17:14.260Z,80.50
2019-01-04T10:19:42.833Z,77.10
2019-01-04T10:22:11.405Z,77.30
2019-01-04T10:24:39.989Z,73.40
2019-01-04T10:27:08.568Z,72.30
2019-01-04T10:29:37.150Z,71.70
2019-01-04T10:32:05.718Z,71.10
2019-01-04T10:34:34.288Z,72.10
2019-01-04T10:37:03.136Z,70.30
2019-01-04T10:39:31.715Z,73.10
2019-01-04T10:42:00.348Z,75.40
2019-01-04T10:44:28.924Z,77.50
2019-01-04T10:46:57.525Z,78.20
2019-01-04T10:49:26.288Z,79.60
2019-01-04T10:52:00.804Z,80.70
2019-01-04T10:54:29.381Z,81.50
2019-01-04T10:56:57.939Z,82.30
2019-01-04T10:59:26.526Z,83.00
2019-01-04T11:01:55.117Z,83.60
2019-01-04T11:04:23.728Z,82.00
2019-01-04T11:06:53.316Z,82.40
2019-01-04T11:09:21.875Z,82.70
2019-01-04T11:11:50.479Z,81.60
2019-01-04T11:14:19.071Z,81.90
2019-01-04T11:16:47.669Z,82.80
2019-01-04T11:19:16.232Z,84.10
2019-01-04T11:21:44.796Z,83.20
2019-01-04T11:24:37.007Z,83.80
2019-01-04T11:27:07.941Z,82.00
2019-01-04T11:30:00.189Z,81.30
2019-01-04T11:32:53.960Z,80.60
2019-01-04T11:35:55.215Z,79.80
2019-01-04T11:38:40.480Z,78.70
2019-01-04T11:41:59.407Z,77.60
2019-01-04T11:45:26.111Z,75.70
2019-01-04T11:48:54.467Z,73.40
2019-01-04T11:51:44.784Z,70.10
2019-01-04T11:54:17.547Z,70.40
2019-01-04T11:56:46.128Z,71.10
2019-01-04T11:59:14.767Z,72.50
2019-01-04T12:01:44.056Z,71.10
2019-01-04T12:04:12.613Z,72.50
2019-01-04T12:06:41.224Z,73.40
2019-01-04T12:09:11.999Z,73.20
2019-01-04T12:11:40.586Z,74.40
2019-01-04T12:14:09.148Z,74.80
2019-01-04T12:16:37.708Z,74.40
2019-01-04T12:19:06.264Z,74.60
2019-01-04T12:21:34.845Z,74.70
2019-01-04T12:24:03.408Z,74.10
2019-01-04T12:26:31.981Z,73.50
2019-01-04T12:29:00.605Z,73.40
2019-01-04T12:31:29.187Z,72.40
2019-01-04T12:33:57.761Z,72.70
2019-01-04T12:36:26.342Z,73.20
2019-01-04T12:38:54.901Z,72.90
2019-01-04T12:41:23.468Z,73.70
2019-01-04T12:43:52.082Z,75.00
2019-01-04T12:46:21.918Z,75.40
2019-01-04T12:48:50.485Z,75.70
2019-01-04T12:51:19.133Z,76.20
2019-01-04T12:53:47.720Z,77.10
2019-01-04T12:56:16.289Z,78.60
2019-01-04T12:58:44.856Z,78.40
2019-01-04T13:01:13.404Z,79.00
2019-01-04T13:03:42.071Z,80.40
2019-01-04T13:06:10.646Z,80.80
2019-01-04T13:08:39.230Z,81.10
2019-01-04T13:11:07.779Z,82.00
2019-01-04T13:13:37.224Z,82.20
2019-01-04T13:16:05.833Z,83.50
2019-01-04T13:18:34.408Z,83.90
2019-01-04T13:21:02.978Z,83.50
2019-01-04T13:23:31.594Z,85.00
2019-01-04T13:26:00.158Z,85.60
2019-01-04T13:28:28.736Z,85.60
2019-01-04T13:30:57.302Z,85.80
2019-01-04T13:33:25.898Z,86.20
2019-01-04T13:35:55.040Z,87.00
2019-01-04T13:38:23.596Z,88.00
2019-01-04T13:40:52.211Z,90.00
2019-01-04T13:43:20.760Z,90.10
2019-01-04T13:45:49.319Z,90.30
2019-01-04T13:48:17.860Z,90.50
2019-01-04T13:50:46.444Z,90.20
2019-01-04T13:53:15.012Z,90.00
2019-01-04T13:55:43.560Z,90.30
2019-01-04T13:58:13.128Z,90.10
2019-01-04T14:00:41.688Z,90.20
2019-01-04T14:03:10.428Z,90.40
2019-01-04T14:05:39.016Z,90.60
2019-01-04T14:08:07.568Z,90.60
2019-01-04T14:10:36.145Z,90.80
2019-01-04T14:13:09.265Z,90.80
2019-01-04T14:15:35.023Z,90.90
2019-01-04T14:18:03.635Z,90.80
2019-01-04T14:20:32.187Z,91.00
2019-01-04T14:23:00.754Z,91.00
2019-01-04T14:25:29.532Z,91.00
2019-01-04T14:27:58.112Z,91.00
2019-01-04T14:30:26.953Z,90.70
2019-01-04T14:32:55.526Z,90.90
2019-01-04T14:35:24.092Z,90.80
2019-01-04T14:37:53.019Z,90.80
2019-01-04T14:40:21.645Z,90.50
2019-01-04T14:42:50.228Z,90.50
2019-01-04T14:45:18.823Z,90.60
2019-01-04T14:47:47.384Z,90.70
2019-01-04T14:50:15.953Z,90.70
2019-01-04T14:52:44.509Z,90.80
2019-01-04T14:55:13.152Z,90.50
2019-01-04T14:57:41.726Z,90.40
2019-01-04T15:00:12.293Z,90.50
2019-01-04T15:02:40.860Z,90.50
2019-01-04T15:05:09.439Z,90.30
2019-01-04T15:07:38.017Z,90.50
2019-01-04T15:10:08.603Z,90.50
2019-01-04T15:12:37.173Z,90.40
2019-01-04T15:15:06.008Z,90.50
2019-01-04T15:17:34.591Z,90.70
2019-01-04T15:20:03.304Z,90.50
2019-01-04T15:22:31.888Z,90.40
2019-01-04T15:25:00.451Z,90.20
2019-01-04T15:27:30.607Z,90.20
2019-01-04T15:29:59.177Z,90.30
2019-01-04T15:32:27.752Z,90.00
2019-01-04T15:34:56.348Z,89.90
2019-01-04T15:37:25.019Z,90.00
2019-01-04T15:39:53.598Z,89.60
2019-01-04T15:42:22.168Z,89.40
2019-01-04T15:44:50.732Z,89.20
2019-01-04T15:47:19.334Z,89.40
2019-01-04T15:49:47.932Z,89.50
2019-01-04T15:52:16.511Z,89.20
2019-01-04T15:54:45.077Z,89.30
2019-01-04T15:57:13.723Z,89.10
2019-01-04T15:59:43.204Z,89.00
2019-01-04T16:02:11.818Z,88.90
2019-01-04T16:04:40.403Z,88.80
2019-01-04T16:07:09.170Z,88.30
2019-01-04T16:09:37.725Z,88.60
2019-01-04T16:12:06.462Z,88.30
2019-01-04T16:14:35.075Z,88.60
2019-01-04T16:17:03.639Z,88.60
2019-01-04T16:19:32.212Z,87.70
2019-01-04T16:22:01.072Z,87.60
2019-01-04T16:24:29.655Z,87.60
2019-01-04T16:26:58.278Z,87.70
2019-01-04T16:29:26.864Z,87.80
2019-01-04T16:31:55.443Z,87.80
2019-01-04T16:34:24.011Z,88.20
2019-01-04T16:36:52.595Z,87.80
2019-01-04T16:39:21.156Z,87.90
2019-01-04T16:41:49.748Z,87.80
2019-01-04T16:44:18.338Z,88.60
2019-01-04T16:46:46.892Z,88.40
2019-01-04T16:49:15.480Z,87.90
2019-01-04T16:51:45.233Z,88.30
2019-01-04T16:54:13.807Z,89.00
2019-01-04T16:56:42.383Z,88.70
2019-01-04T16:59:10.948Z,88.70
2019-01-04T17:01:39.623Z,88.70
2019-01-04T17:04:08.182Z,89.00
2019-01-04T17:06:37.029Z,88.60
2019-01-04T17:09:07.892Z,87.90
2019-01-04T17:11:36.899Z,88.50
2019-01-04T17:14:05.469Z,89.30
2019-01-04T17:16:34.329Z,89.40
2019-01-04T17:19:15.114Z,89.30
2019-01-04T17:21:45.034Z,89.40
2019-01-04T17:24:14.583Z,88.70
2019-01-04T17:26:43.339Z,88.60
2019-01-04T17:29:12.456Z,89.10
2019-01-04T17:31:41.139Z,89.10
2019-01-04T17:34:09.888Z,89.20
2019-01-04T17:36:38.461Z,89.10
2019-01-04T17:39:08.338Z,88.70
2019-01-04T17:41:36.994Z,88.80
2019-01-04T17:44:05.656Z,88.90
2019-01-04T17:46:35.211Z,88.60
2019-01-04T17:49:04.187Z,88.50
2019-01-04T17:51:34.763Z,88.20
2019-01-04T17:54:03.373Z,88.20
2019-01-04T17:56:32.091Z,88.50
2019-01-04T17:59:00.708Z,88.70
2019-01-04T18:01:29.423Z,89.00
2019-01-04T18:03:58.085Z,88.30
2019-01-04T18:06:26.652Z,89.30
2019-01-04T18:08:55.235Z,89.10
2019-01-04T18:11:25.320Z,88.90
2019-01-04T18:13:54.196Z,88.60
2019-01-04T18:16:22.815Z,88.80
2019-01-04T18:18:51.458Z,89.00
2019-01-04T18:21:20.054Z,89.10
2019-01-04T18:23:48.642Z,88.90
2019-01-04T18:26:17.241Z,88.40
2019-01-04T18:28:45.811Z,88.50
2019-01-04T18:31:14.523Z,88.50
2019-01-04T18:33:43.290Z,88.60
2019-01-04T18:36:12.084Z,88.70
2019-01-04T18:38:42.209Z,88.90
2019-01-04T18:41:10.923Z,88.70
2019-01-04T18:43:39.605Z,88.80
2019-01-04T18:46:09.619Z,87.60
2019-01-04T18:48:38.377Z,87.90
2019-01-04T18:51:06.967Z,87.80
2019-01-04T18:53:35.623Z,88.40
2019-01-04T18:56:04.235Z,88.60
2019-01-04T18:58:32.893Z,88.70
2019-01-04T19:01:01.634Z,88.90
2019-01-04T19:03:30.186Z,89.10
2019-01-04T19:06:00.087Z,88.90
2019-01-04T19:08:28.670Z,88.80
2019-01-04T19:10:57.249Z,88.70
2019-01-04T19:13:26.858Z,88.60
2019-01-04T19:15:55.943Z,89.30
2019-01-04T19:18:24.516Z,89.00
2019-01-04T19:20:53.340Z,89.30
2019-01-04T19:23:22.080Z,89.40
2019-01-04T19:25:50.764Z,89.70
2019-01-04T19:28:19.579Z,90.00
2019-01-04T19:30:48.345Z,90.20
2019-01-04T19:33:18.989Z,90.00
2019-01-04T19:35:47.966Z,89.90
2019-01-04T19:38:16.841Z,90.00
2019-01-04T19:40:46.831Z,89.80
2019-01-04T19:43:15.512Z,90.00
2019-01-04T19:45:44.183Z,89.80
2019-01-04T19:48:12.814Z,90.10
2019-01-04T19:50:41.516Z,89.60
2019-01-04T19:53:10.243Z,90.10
2019-01-04T19:55:39.328Z,89.80
2019-01-04T19:58:08.006Z,89.70
2019-01-04T20:00:37.188Z,89.50
2019-01-04T20:03:05.828Z,90.10
2019-01-04T20:06:17.483Z,89.90
2019-01-04T20:09:42.619Z,89.70
2019-01-04T20:13:22.004Z,89.90
2019-01-04T20:16:39.812Z,90.10
2019-01-04T20:19:28.176Z,90.00
2019-01-04T20:22:18.979Z,90.20
2019-01-04T20:25:02.984Z,90.30
2019-01-04T20:27:59.978Z,90.30
2019-01-04T20:30:53.692Z,90.30
2019-01-04T20:33:37.568Z,90.30
2019-01-04T20:36:25.144Z,90.40
2019-01-04T20:39:25.204Z,90.30
2019-01-04T20:42:12.895Z,90.30
2019-01-04T20:45:02.799Z,90.30
2019-01-04T20:48:09.271Z,90.30
2019-01-04T20:50:59.985Z,90.40
2019-01-04T20:53:46.439Z,90.40
2019-01-04T20:56:32.759Z,90.30
2019-01-04T20:59:26.451Z,90.50
2019-01-04T21:02:17.325Z,90.70
2019-01-04T21:05:07.965Z,90.70
2019-01-04T21:07:46.374Z,90.90
2019-01-04T21:10:32.879Z,91.10
2019-01-04T21:13:14.601Z,91.20
2019-01-04T21:16:01.085Z,91.20
2019-01-04T21:18:47.424Z,91.30
2019-01-04T21:21:33.870Z,91.50
2019-01-04T21:24:33.900Z,91.70
2019-01-04T21:27:21.549Z,92.20
2019-01-04T21:30:10.232Z,92.10
2019-01-04T21:33:01.055Z,92.00
2019-01-04T21:35:47.903Z,92.00
2019-01-04T21:38:34.182Z,92.10
2019-01-04T21:41:21.853Z,92.00
2019-01-04T21:44:08.338Z,92.10
2019-01-04T21:46:57.762Z,91.90
2019-01-04T21:49:50.105Z,91.90
2019-01-04T21:52:36.501Z,92.10
2019-01-04T21:55:20.108Z,91.90
2019-01-04T21:58:07.754Z,91.90
2019-01-04T22:01:04.841Z,91.80
2019-01-04T22:03:51.054Z,91.80
2019-01-04T22:06:37.340Z,91.70
2019-01-04T22:09:25.676Z,91.70
2019-01-04T22:12:11.896Z,91.70
2019-01-04T22:15:05.660Z,91.60
2019-01-04T22:17:56.144Z,91.50
2019-01-04T22:20:58.766Z,91.50
2019-01-04T22:24:01.981Z,91.60
2019-01-04T22:26:50.051Z,91.60
2019-01-04T22:29:49.996Z,91.60
2019-01-04T22:32:36.366Z,91.70
2019-01-04T22:35:22.842Z,91.70
2019-01-04T22:38:09.162Z,91.70
2019-01-04T22:40:55.549Z,91.90
2019-01-04T22:43:49.239Z,91.90
2019-01-04T22:46:41.966Z,92.00
2019-01-04T22:49:35.673Z,92.10
2019-01-04T22:52:38.571Z,92.10
2019-01-04T22:55:25.321Z,92.10
2019-01-04T22:58:03.763Z,92.30
2019-01-04T23:00:50.312Z,92.20
2019-01-04T23:03:46.784Z,92.10
2019-01-04T23:06:47.107Z,92.10
2019-01-04T23:09:40.568Z,92.20
2019-01-04T23:12:43.275Z,92.30
2019-01-04T23:15:32.627Z,92.40
2019-01-04T23:18:26.177Z,92.40
2019-01-04T23:21:12.657Z,92.30
2019-01-04T23:24:06.519Z,92.30
2019-01-04T23:26:54.196Z,92.30
2019-01-04T23:29:36.937Z,92.40
2019-01-04T23:32:23.476Z,92.60
2019-01-04T23:35:16.959Z,92.90
2019-01-04T23:38:10.460Z,92.80
2019-01-04T23:41:10.415Z,92.60
2019-01-04T23:43:57.520Z,92.70
2019-01-04T23:46:52.613Z,92.70
2019-01-04T23:49:37.180Z,92.80
2019-01-04T23:52:29.098Z,92.70
2019-01-04T23:55:20.830Z,92.80
2019-01-04T23:58:07.479Z,93.00
